E.r. Borneo — A8SZ4 — position and weather

sailwx.info

Track history (hours):
 
Tides and Currents Weather Stations Pressure Air Temp Water Temp Dewpoint Dewpoint Depression Visibility Wind Speed Wind Dir Waves Ship Positions

E.r. Borneo

Last reported at 2016-Apr-21 00:21 UTC. Time now 2016-Apr-29 19:50 UTC.
Position N 02°05' E 102°07'.
Warning: this ship's position is 8 days out of date.

Length 292 m; draft 9.3 m.

Type: Cargo ship. MMSI: 636091797.

Date/timePositionNaut miles runAvg speedWind from/ knotsBaromVisibWave heightAir tempDewpointWater temp
2016-Apr-21 00:21N 02°05' E 102°07'1012.2
2016-Apr-20 23:33N 01°59' E 102°14'1212.2
2016-Apr-20 22:34N 01°53' E 102°25'1413.2
2016-Apr-20 21:31N 01°47' E 102°37'6014.0
2016-Apr-20 17:11N 01°14' E 103°28'813.4
2016-Apr-20 16:33N 01°12' E 103°36'1111.4
2016-Apr-20 15:34N 01°10' E 103°47'1212.4
2016-Apr-20 14:34N 01°15' E 103°59'6 0.7
2016-Apr-20 05:23N 01°18' E 104°04'0 0.1
2016-Apr-20 03:29N 01°18' E 104°03'0 0.1
2016-Apr-20 02:23N 01°18' E 104°03'0 0.0
2016-Apr-20 00:29N 01°18' E 104°03'0 0.0
2016-Apr-19 23:08N 01°18' E 104°03'0 0.4
2016-Apr-19 22:32N 01°18' E 104°04'0 0.1
2016-Apr-19 21:23N 01°18' E 104°04'0 0.0
2016-Apr-19 20:32N 01°18' E 104°04'0 0.1
2016-Apr-19 18:11N 01°18' E 104°04'1 1.6
2016-Apr-19 17:33N 01°17' E 104°04'2 2.5
2016-Apr-19 16:33N 01°18' E 104°07'5 5.2
2016-Apr-19 15:31N 01°17' E 104°12'  
Track history (hours):
 
Tides and Currents Weather Stations Pressure Air Temp Water Temp Dewpoint Dewpoint Depression Visibility Wind Speed Wind Dir Waves Ship Positions

E.r. Borneo

Last reported at 2016-Apr-21 00:21 UTC. Time now 2016-Apr-29 19:50 UTC.
Position N 02°05' E 102°07'.
Warning: this ship's position is 8 days out of date.

Length 292 m; draft 9.3 m.

Type: Cargo ship. MMSI: 636091797.

Date/timePositionNaut miles runAvg speedWind from/ knotsBaromVisibWave heightAir tempDewpointWater temp
2016-Apr-21 00:21N 02°05' E 102°07'1012.2
2016-Apr-20 23:33N 01°59' E 102°14'1212.2
2016-Apr-20 22:34N 01°53' E 102°25'1413.2
2016-Apr-20 21:31N 01°47' E 102°37'6014.0
2016-Apr-20 17:11N 01°14' E 103°28'813.4
2016-Apr-20 16:33N 01°12' E 103°36'1111.4
2016-Apr-20 15:34N 01°10' E 103°47'1212.4
2016-Apr-20 14:34N 01°15' E 103°59'6 0.7
2016-Apr-20 05:23N 01°18' E 104°04'0 0.1
2016-Apr-20 03:29N 01°18' E 104°03'0 0.1
2016-Apr-20 02:23N 01°18' E 104°03'0 0.0
2016-Apr-20 00:29N 01°18' E 104°03'0 0.0
2016-Apr-19 23:08N 01°18' E 104°03'0 0.4
2016-Apr-19 22:32N 01°18' E 104°04'0 0.1
2016-Apr-19 21:23N 01°18' E 104°04'0 0.0
2016-Apr-19 20:32N 01°18' E 104°04'0 0.1
2016-Apr-19 18:11N 01°18' E 104°04'1 1.6
2016-Apr-19 17:33N 01°17' E 104°04'2 2.5
2016-Apr-19 16:33N 01°18' E 104°07'5 5.2
2016-Apr-19 15:31N 01°17' E 104°12'  

Dump ship's entire track history